createdAt,value
2023-01-01T00:00:34.753Z,2.50
2023-01-01T00:01:35.720Z,1.90
2023-01-01T00:02:37.003Z,3.20
2023-01-01T00:03:34.735Z,2.40
2023-01-01T00:04:34.715Z,2.30
2023-01-01T00:05:34.692Z,2.20
2023-01-01T00:06:34.673Z,1.70
2023-01-01T00:07:34.652Z,2.50
2023-01-01T00:08:34.653Z,2.20
2023-01-01T00:09:34.653Z,2.70
2023-01-01T00:10:34.644Z,2.50
2023-01-01T00:11:34.665Z,2.40
2023-01-01T00:12:34.636Z,2.50
2023-01-01T00:13:34.635Z,2.10
2023-01-01T00:14:34.587Z,2.70
2023-01-01T00:15:34.560Z,2.10
2023-01-01T00:16:34.608Z,2.10
2023-01-01T00:17:34.579Z,3.10
2023-01-01T00:18:35.579Z,2.70
2023-01-01T00:19:34.539Z,2.10
2023-01-01T00:20:35.593Z,1.50
2023-01-01T00:21:34.517Z,1.80
2023-01-01T00:22:53.775Z,1.10
2023-01-01T00:23:35.505Z,1.20
2023-01-01T00:24:34.487Z,0.90
2023-01-01T00:25:34.489Z,0.90
2023-01-01T00:26:35.722Z,0.90
2023-01-01T00:27:34.502Z,1.40
2023-01-01T00:28:34.443Z,1.50
2023-01-01T00:29:34.453Z,1.00
2023-01-01T00:30:34.422Z,0.80
2023-01-01T00:31:34.460Z,0.50
2023-01-01T00:32:34.461Z,0.70
2023-01-01T00:33:34.410Z,0.80
2023-01-01T00:34:34.361Z,1.10
2023-01-01T00:35:34.358Z,1.00
2023-01-01T00:36:34.380Z,0.60
2023-01-01T00:37:34.323Z,1.00
2023-01-01T00:38:34.340Z,0.80
2023-01-01T00:39:34.302Z,0.90
2023-01-01T00:40:34.334Z,1.30
2023-01-01T00:41:34.302Z,1.10
2023-01-01T00:42:35.276Z,1.10
2023-01-01T00:43:35.297Z,0.90
2023-01-01T00:44:34.246Z,0.60
2023-01-01T00:45:34.322Z,1.10
2023-01-01T00:46:34.283Z,0.80
2023-01-01T00:47:34.239Z,1.20
2023-01-01T00:48:34.224Z,0.30
2023-01-01T00:49:34.194Z,0.50
2023-01-01T00:50:34.216Z,0.70
2023-01-01T00:51:37.218Z,0.50
2023-01-01T00:52:34.204Z,0.40
2023-01-01T00:53:35.178Z,0.50
2023-01-01T00:54:34.177Z,0.60
2023-01-01T00:55:34.136Z,0.90
2023-01-01T00:56:34.130Z,0.70
2023-01-01T00:57:34.153Z,0.60
2023-01-01T00:58:34.095Z,0.80
2023-01-01T00:59:34.114Z,0.80
2023-01-01T01:00:34.099Z,0.70
2023-01-01T01:01:34.200Z,0.60
2023-01-01T01:02:34.252Z,1.50
2023-01-01T01:03:34.078Z,0.50
2023-01-01T01:04:35.040Z,0.40
2023-01-01T01:05:35.038Z,0.40
2023-01-01T01:06:34.048Z,0.60
2023-01-01T01:07:34.023Z,0.70
2023-01-01T01:08:34.026Z,0.90
2023-01-01T01:09:35.019Z,1.20
2023-01-01T01:10:33.971Z,0.40
2023-01-01T01:11:35.012Z,0.90
2023-01-01T01:12:33.988Z,0.80
2023-01-01T01:13:33.930Z,0.70
2023-01-01T01:14:33.932Z,0.70
2023-01-01T01:15:33.940Z,0.90
2023-01-01T01:16:33.968Z,0.40
2023-01-01T01:17:34.919Z,0.40
2023-01-01T01:18:33.896Z,1.10
2023-01-01T01:19:33.861Z,0.90
2023-01-01T01:20:33.903Z,0.60
2023-01-01T01:21:33.849Z,0.80
2023-01-01T01:22:33.872Z,1.00
2023-01-01T01:23:33.836Z,0.60
2023-01-01T01:24:33.855Z,0.80
2023-01-01T01:25:33.829Z,0.50
2023-01-01T01:26:33.836Z,0.80
2023-01-01T01:27:33.793Z,1.10
2023-01-01T01:28:33.789Z,0.50
2023-01-01T01:29:33.780Z,0.60
2023-01-01T01:30:33.771Z,0.60
2023-01-01T01:31:33.750Z,0.50
2023-01-01T01:32:33.747Z,0.70
2023-01-01T01:33:33.749Z,0.60
2023-01-01T01:34:33.722Z,0.30
2023-01-01T01:35:33.715Z,0.40
2023-01-01T01:36:34.686Z,0.60
2023-01-01T01:37:33.677Z,0.50
2023-01-01T01:38:33.687Z,0.50
2023-01-01T01:39:33.663Z,0.70
2023-01-01T01:40:34.642Z,0.60
2023-01-01T01:41:33.624Z,0.40
2023-01-01T01:42:33.632Z,0.70
2023-01-01T01:43:33.637Z,0.80
2023-01-01T01:44:33.623Z,0.70
2023-01-01T01:45:33.807Z,0.30
2023-01-01T01:46:33.643Z,1.40
2023-01-01T01:47:33.567Z,0.60
2023-01-01T01:48:33.571Z,0.60
2023-01-01T01:49:33.578Z,0.40
2023-01-01T01:50:33.569Z,1.10
2023-01-01T01:51:33.539Z,1.30
2023-01-01T01:52:33.547Z,0.80
2023-01-01T01:53:33.507Z,1.00
2023-01-01T01:54:33.559Z,0.60
2023-01-01T01:55:33.513Z,0.40
2023-01-01T01:56:33.471Z,0.50
2023-01-01T01:57:34.482Z,0.50
2023-01-01T01:58:34.451Z,0.80
2023-01-01T01:59:33.449Z,0.40
2023-01-01T02:00:33.437Z,0.40
2023-01-01T02:01:33.536Z,0.40
2023-01-01T02:02:33.669Z,0.70
2023-01-01T02:03:33.404Z,0.60
2023-01-01T02:04:33.418Z,0.40
2023-01-01T02:05:33.413Z,0.60
2023-01-01T02:06:33.365Z,0.30
2023-01-01T02:07:34.353Z,0.60
2023-01-01T02:08:34.349Z,0.70
2023-01-01T02:09:33.335Z,0.60
2023-01-01T02:10:33.307Z,0.50
2023-01-01T02:11:34.341Z,0.40
2023-01-01T02:12:33.298Z,0.50
2023-01-01T02:13:34.284Z,0.40
2023-01-01T02:14:33.277Z,0.40
2023-01-01T02:15:33.367Z,0.30
2023-01-01T02:16:33.272Z,0.50
2023-01-01T02:17:38.688Z,0.60
2023-01-01T02:18:34.230Z,0.40
2023-01-01T02:19:34.223Z,0.40
2023-01-01T02:20:33.245Z,0.30
2023-01-01T02:21:34.218Z,0.50
2023-01-01T02:22:33.216Z,0.50
2023-01-01T02:23:33.189Z,0.40
2023-01-01T02:24:33.167Z,0.30
2023-01-01T02:25:33.157Z,0.60
2023-01-01T02:26:33.152Z,0.50
2023-01-01T02:27:33.150Z,0.40
2023-01-01T02:28:34.114Z,0.60
2023-01-01T02:29:33.116Z,0.70
2023-01-01T02:30:33.108Z,0.50
2023-01-01T02:31:33.121Z,0.70
2023-01-01T02:32:33.086Z,0.30
2023-01-01T02:33:33.092Z,0.50
2023-01-01T02:34:33.095Z,0.40
2023-01-01T02:35:33.052Z,0.90
2023-01-01T02:36:33.058Z,0.40
2023-01-01T02:37:33.043Z,0.40
2023-01-01T02:38:33.023Z,0.80
2023-01-01T02:39:33.027Z,0.70
2023-01-01T02:40:33.032Z,0.30
2023-01-01T02:41:32.971Z,0.40
2023-01-01T02:42:32.982Z,0.50
2023-01-01T02:43:32.961Z,0.40
2023-01-01T02:44:32.959Z,0.40
2023-01-01T02:45:32.935Z,0.50
2023-01-01T02:46:32.967Z,0.50
2023-01-01T02:47:32.901Z,0.30
2023-01-01T02:48:32.916Z,0.50
2023-01-01T02:49:32.956Z,0.40
2023-01-01T02:50:32.877Z,0.30
2023-01-01T02:51:32.861Z,0.40
2023-01-01T02:52:33.878Z,1.20
2023-01-01T02:53:32.894Z,0.60
2023-01-01T02:54:32.830Z,0.40
2023-01-01T02:55:32.835Z,0.20
2023-01-01T02:56:32.831Z,0.40
2023-01-01T02:57:32.831Z,0.60
2023-01-01T02:58:32.791Z,0.60
2023-01-01T02:59:32.784Z,0.30
2023-01-01T03:00:32.789Z,0.40
2023-01-01T03:01:32.872Z,0.60
2023-01-01T03:02:32.946Z,0.50
2023-01-01T03:03:32.818Z,0.40
2023-01-01T03:04:32.716Z,0.60
2023-01-01T03:05:33.718Z,0.20
2023-01-01T03:06:32.709Z,0.90
2023-01-01T03:07:32.714Z,0.30
2023-01-01T03:08:32.709Z,0.30
2023-01-01T03:09:32.697Z,0.30
2023-01-01T03:10:32.653Z,0.20
2023-01-01T03:11:32.663Z,0.20
2023-01-01T03:12:32.666Z,0.30
2023-01-01T03:13:32.660Z,0.40
2023-01-01T03:14:32.626Z,0.30
2023-01-01T03:15:32.699Z,0.80
2023-01-01T03:16:32.598Z,0.40
2023-01-01T03:17:32.594Z,0.20
2023-01-01T03:18:32.587Z,0.40
2023-01-01T03:19:32.573Z,0.80
2023-01-01T03:20:32.570Z,0.40
2023-01-01T03:21:32.548Z,0.30
2023-01-01T03:22:32.546Z,0.30
2023-01-01T03:23:32.531Z,0.60
2023-01-01T03:24:32.537Z,0.80
2023-01-01T03:25:32.523Z,0.60
2023-01-01T03:26:32.526Z,0.30
2023-01-01T03:27:33.487Z,0.60
2023-01-01T03:28:33.492Z,0.30
2023-01-01T03:29:32.473Z,0.40
2023-01-01T03:30:32.484Z,0.40
2023-01-01T03:31:32.464Z,0.60
2023-01-01T03:32:32.458Z,0.40
2023-01-01T03:33:32.427Z,0.50
2023-01-01T03:34:32.416Z,0.20
2023-01-01T03:35:32.411Z,0.60
2023-01-01T03:36:33.387Z,0.50
2023-01-01T03:37:33.423Z,0.50
2023-01-01T03:38:32.342Z,0.40
2023-01-01T03:39:32.355Z,0.40
2023-01-01T03:40:33.346Z,0.50
2023-01-01T03:41:32.371Z,0.40
2023-01-01T03:42:32.321Z,0.40
2023-01-01T03:43:32.317Z,0.60
2023-01-01T03:44:32.319Z,0.60
2023-01-01T03:45:32.267Z,0.60
2023-01-01T03:46:32.389Z,0.30
2023-01-01T03:47:33.269Z,0.40
2023-01-01T03:48:33.261Z,0.80
2023-01-01T03:49:33.237Z,0.60
2023-01-01T03:50:32.216Z,0.70
2023-01-01T03:51:32.207Z,0.60
2023-01-01T03:52:32.221Z,1.00
2023-01-01T03:53:32.185Z,0.40
2023-01-01T03:54:32.237Z,1.10
2023-01-01T03:55:32.183Z,0.30
2023-01-01T03:56:33.161Z,0.40
2023-01-01T03:57:32.176Z,0.60
2023-01-01T03:58:32.161Z,0.30
2023-01-01T03:59:32.156Z,0.30
2023-01-01T04:00:33.141Z,0.80
2023-01-01T04:01:32.258Z,0.70
2023-01-01T04:02:32.269Z,0.60
2023-01-01T04:03:33.123Z,0.50
2023-01-01T04:04:32.089Z,0.30
2023-01-01T04:05:32.071Z,0.40
2023-01-01T04:06:32.097Z,0.40
2023-01-01T04:07:32.037Z,0.60
2023-01-01T04:08:33.042Z,0.50
2023-01-01T04:09:32.028Z,0.50
2023-01-01T04:10:32.002Z,0.60
2023-01-01T04:11:33.012Z,0.30
2023-01-01T04:12:31.992Z,0.40
2023-01-01T04:13:31.993Z,0.30
2023-01-01T04:14:31.945Z,0.60
2023-01-01T04:15:31.990Z,0.40
2023-01-01T04:16:33.061Z,0.70
2023-01-01T04:17:31.943Z,0.50
2023-01-01T04:18:31.934Z,1.10
2023-01-01T04:19:31.935Z,0.50
2023-01-01T04:20:31.908Z,0.40
2023-01-01T04:21:31.877Z,0.40
2023-01-01T04:22:31.902Z,0.50
2023-01-01T04:23:31.880Z,0.90
2023-01-01T04:24:32.855Z,0.80
2023-01-01T04:25:31.834Z,0.20
2023-01-01T04:26:31.827Z,0.70
2023-01-01T04:27:31.839Z,0.40
2023-01-01T04:28:32.852Z,0.40
2023-01-01T04:29:31.829Z,0.60
2023-01-01T04:30:31.815Z,0.60
2023-01-01T04:31:31.762Z,0.30
2023-01-01T04:32:31.817Z,0.50
2023-01-01T04:33:32.747Z,0.60
2023-01-01T04:34:31.740Z,0.80
2023-01-01T04:35:31.744Z,0.50
2023-01-01T04:36:31.705Z,0.60
2023-01-01T04:37:31.751Z,0.50
2023-01-01T04:38:32.728Z,0.40
2023-01-01T04:39:31.688Z,0.40
2023-01-01T04:40:31.684Z,0.70
2023-01-01T04:41:31.688Z,1.10
2023-01-01T04:42:31.652Z,1.50
2023-01-01T04:43:31.679Z,0.70
2023-01-01T04:44:31.664Z,0.30
2023-01-01T04:45:31.657Z,0.40
2023-01-01T04:46:31.614Z,0.60
2023-01-01T04:47:32.603Z,0.80
2023-01-01T04:48:31.592Z,0.50
2023-01-01T04:49:31.589Z,0.40
2023-01-01T04:50:31.568Z,0.90
2023-01-01T04:51:31.558Z,0.50
2023-01-01T04:52:31.547Z,0.80
2023-01-01T04:53:31.518Z,0.30
2023-01-01T04:54:32.518Z,0.70
2023-01-01T04:55:31.520Z,0.50
2023-01-01T04:56:31.513Z,0.60
2023-01-01T04:57:31.496Z,0.70
2023-01-01T04:58:31.484Z,1.50
2023-01-01T04:59:31.472Z,0.30
2023-01-01T05:00:31.491Z,1.00
2023-01-01T05:01:31.567Z,0.70
2023-01-01T05:02:31.564Z,0.30
2023-01-01T05:03:31.440Z,0.30
2023-01-01T05:04:31.434Z,0.80
2023-01-01T05:05:32.410Z,0.30
2023-01-01T05:06:31.392Z,0.50
2023-01-01T05:07:31.436Z,0.40
2023-01-01T05:08:31.382Z,0.70
2023-01-01T05:09:31.362Z,0.90
2023-01-01T05:10:31.404Z,0.70
2023-01-01T05:11:31.344Z,0.80
2023-01-01T05:12:32.331Z,0.80
2023-01-01T05:13:31.310Z,0.50
2023-01-01T05:14:31.331Z,0.60
2023-01-01T05:15:31.282Z,0.70
2023-01-01T05:16:31.400Z,0.50
2023-01-01T05:17:31.376Z,0.50
2023-01-01T05:18:31.271Z,0.50
2023-01-01T05:19:31.259Z,0.50
2023-01-01T05:20:31.245Z,0.30
2023-01-01T05:21:32.222Z,0.50
2023-01-01T05:22:31.232Z,0.80
2023-01-01T05:23:31.203Z,0.50
2023-01-01T05:24:31.195Z,0.50
2023-01-01T05:25:31.192Z,0.40
2023-01-01T05:26:32.200Z,0.60
2023-01-01T05:27:31.174Z,0.50
2023-01-01T05:28:32.152Z,0.60
2023-01-01T05:29:31.171Z,0.70
2023-01-01T05:30:31.150Z,0.30
2023-01-01T05:31:32.136Z,0.30
2023-01-01T05:32:31.102Z,1.10
2023-01-01T05:33:31.133Z,0.70
2023-01-01T05:35:00.920Z,0.40
2023-01-01T05:36:00.929Z,0.50
2023-01-01T05:37:00.785Z,0.40
2023-01-01T05:38:01.779Z,0.50
2023-01-01T05:39:00.771Z,0.40
2023-01-01T05:40:00.765Z,0.50
2023-01-01T05:41:01.771Z,0.40
2023-01-01T05:42:00.729Z,0.60
2023-01-01T05:43:00.752Z,0.40
2023-01-01T05:44:01.724Z,0.30
2023-01-01T05:45:00.708Z,0.30
2023-01-01T05:46:00.773Z,0.40
2023-01-01T05:47:00.688Z,0.40
2023-01-01T05:48:00.690Z,0.50
2023-01-01T05:49:00.832Z,0.50
2023-01-01T05:50:00.663Z,0.30
2023-01-01T05:51:00.637Z,0.40
2023-01-01T05:52:00.649Z,0.50
2023-01-01T05:53:00.634Z,0.30
2023-01-01T05:54:00.583Z,0.50
2023-01-01T05:55:00.624Z,0.40
2023-01-01T05:56:00.567Z,0.30
2023-01-01T05:57:01.585Z,0.30
2023-01-01T05:58:00.563Z,0.70
2023-01-01T05:59:00.552Z,0.50
2023-01-01T06:00:01.571Z,0.30
2023-01-01T06:01:00.616Z,0.80
2023-01-01T06:02:00.638Z,0.40
2023-01-01T06:03:00.524Z,0.50
2023-01-01T06:04:00.614Z,0.50
2023-01-01T06:05:01.494Z,0.40
2023-01-01T06:06:00.503Z,0.50
2023-01-01T06:07:00.473Z,0.60
2023-01-01T06:08:00.457Z,0.40
2023-01-01T06:09:01.441Z,0.80
2023-01-01T06:10:00.421Z,0.40
2023-01-01T06:11:00.410Z,0.40
2023-01-01T06:12:00.454Z,0.20
2023-01-01T06:13:00.392Z,0.50
2023-01-01T06:14:01.393Z,0.40
2023-01-01T06:15:00.393Z,0.40
2023-01-01T06:16:00.361Z,0.60
2023-01-01T06:17:00.488Z,0.20
2023-01-01T06:18:00.332Z,0.90
2023-01-01T06:19:00.320Z,0.30
2023-01-01T06:20:00.312Z,1.10
2023-01-01T06:21:00.319Z,0.40
2023-01-01T06:22:00.297Z,0.50
2023-01-01T06:23:00.323Z,0.40
2023-01-01T06:24:00.268Z,1.10
2023-01-01T06:25:00.243Z,0.30
2023-01-01T06:26:01.263Z,0.70
2023-01-01T06:27:00.240Z,0.20
2023-01-01T06:28:01.254Z,0.20
2023-01-01T06:29:00.229Z,0.80
2023-01-01T06:30:00.271Z,0.30
2023-01-01T06:31:00.329Z,0.40
2023-01-01T06:32:00.202Z,0.50
2023-01-01T06:33:00.169Z,0.30
2023-01-01T06:34:00.180Z,0.80
2023-01-01T06:35:00.175Z,0.60
2023-01-01T06:36:00.174Z,0.50
2023-01-01T06:37:04.711Z,0.30
2023-01-01T06:38:01.123Z,1.00
2023-01-01T06:39:00.159Z,0.70
2023-01-01T06:40:00.113Z,0.40
2023-01-01T06:41:00.097Z,0.30
2023-01-01T06:42:00.099Z,0.50
2023-01-01T06:43:00.064Z,0.50
2023-01-01T06:44:00.082Z,0.40
2023-01-01T06:45:00.038Z,0.40
2023-01-01T06:46:00.098Z,0.30
2023-01-01T06:47:00.005Z,0.80
2023-01-01T06:48:00.009Z,0.60
2023-01-01T06:48:59.994Z,0.40
2023-01-01T06:49:59.999Z,0.50
2023-01-01T06:50:59.979Z,0.40
2023-01-01T06:51:59.986Z,0.90
2023-01-01T06:52:59.951Z,0.70
2023-01-01T06:53:59.993Z,0.60
2023-01-01T06:54:59.939Z,0.40
2023-01-01T06:55:59.960Z,0.80
2023-01-01T06:56:59.905Z,0.30
2023-01-01T06:57:59.906Z,0.70
2023-01-01T06:58:59.921Z,0.30
2023-01-01T06:59:59.878Z,0.60
2023-01-01T07:01:06.303Z,0.50
2023-01-01T07:02:00.993Z,0.60
2023-01-01T07:03:00.088Z,0.80
2023-01-01T07:03:59.839Z,0.70
2023-01-01T07:04:59.818Z,0.50
2023-01-01T07:05:59.831Z,0.30
2023-01-01T07:06:59.792Z,0.30
2023-01-01T07:08:00.795Z,0.40
2023-01-01T07:08:59.829Z,1.20
2023-01-01T07:09:59.792Z,0.30
2023-01-01T07:10:59.770Z,0.80
2023-01-01T07:11:59.744Z,0.30
2023-01-01T07:12:59.709Z,0.30
2023-01-01T07:13:59.736Z,0.50
2023-01-01T07:14:59.717Z,0.70
2023-01-01T07:15:59.858Z,0.50
2023-01-01T07:16:59.704Z,0.60
2023-01-01T07:18:00.682Z,1.10
2023-01-01T07:19:00.688Z,0.60
2023-01-01T07:19:59.652Z,0.20
2023-01-01T07:20:59.650Z,0.20
2023-01-01T07:21:59.630Z,0.60
2023-01-01T07:22:59.616Z,0.30
2023-01-01T07:23:59.672Z,0.30
2023-01-01T07:24:59.615Z,0.40
2023-01-01T07:25:59.632Z,0.30
2023-01-01T07:26:59.569Z,0.50
2023-01-01T07:27:59.572Z,0.60
2023-01-01T07:29:06.217Z,0.40
2023-01-01T07:30:00.541Z,0.60
2023-01-01T07:30:59.596Z,0.70
2023-01-01T07:31:59.538Z,0.50
2023-01-01T07:32:59.521Z,0.50
2023-01-01T07:33:59.497Z,0.80
2023-01-01T07:34:59.513Z,0.70
2023-01-01T07:35:59.497Z,0.40
2023-01-01T07:36:59.481Z,0.70
2023-01-01T07:37:59.452Z,0.50
2023-01-01T07:38:59.455Z,0.30
2023-01-01T07:39:59.431Z,0.30
2023-01-01T07:40:59.507Z,0.60
2023-01-01T07:41:59.401Z,0.80
2023-01-01T07:42:59.387Z,0.50
2023-01-01T07:43:59.395Z,0.40
2023-01-01T07:44:59.376Z,0.30
2023-01-01T07:45:59.457Z,0.20
2023-01-01T07:46:59.384Z,0.70
2023-01-01T07:47:59.341Z,0.40
2023-01-01T07:48:59.343Z,0.70
2023-01-01T07:49:59.333Z,0.60
2023-01-01T07:51:00.349Z,0.50
2023-01-01T07:52:00.306Z,0.30
2023-01-01T07:53:00.283Z,0.30
2023-01-01T07:54:05.712Z,0.50
2023-01-01T07:55:00.261Z,0.70
2023-01-01T07:55:59.282Z,0.70
2023-01-01T07:56:59.281Z,0.70
2023-01-01T07:57:59.254Z,0.70
2023-01-01T07:58:59.230Z,0.40
2023-01-01T07:59:59.241Z,0.90
2023-01-01T08:00:59.193Z,1.10
2023-01-01T08:01:59.271Z,0.50
2023-01-01T08:02:59.392Z,0.90
2023-01-01T08:03:59.182Z,0.40
2023-01-01T08:04:59.155Z,0.60
2023-01-01T08:05:59.141Z,0.40
2023-01-01T08:06:59.151Z,0.60
2023-01-01T08:07:59.170Z,0.70
2023-01-01T08:08:59.126Z,0.40
2023-01-01T08:10:00.108Z,0.60
2023-01-01T08:11:03.578Z,0.50
2023-01-01T08:12:00.141Z,0.80
2023-01-01T08:12:59.103Z,0.40
2023-01-01T08:13:59.080Z,0.50
2023-01-01T08:14:59.087Z,0.60
2023-01-01T08:15:59.118Z,0.50
2023-01-01T08:16:59.019Z,0.60
2023-01-01T08:17:59.021Z,1.10
2023-01-01T08:18:59.014Z,0.80
2023-01-01T08:19:59.994Z,0.40
2023-01-01T08:20:59.005Z,0.30
2023-01-01T08:21:58.996Z,0.50
2023-01-01T08:23:03.101Z,0.60
2023-01-01T08:23:59.949Z,0.30
2023-01-01T08:24:58.947Z,1.20
2023-01-01T08:25:59.930Z,0.30
2023-01-01T08:26:58.896Z,0.70
2023-01-01T08:27:58.919Z,0.30
2023-01-01T08:28:59.952Z,0.40
2023-01-01T08:29:58.886Z,0.40
2023-01-01T08:30:58.932Z,0.60
2023-01-01T08:31:58.855Z,0.80
2023-01-01T08:32:58.845Z,0.30
2023-01-01T08:33:59.865Z,0.30
2023-01-01T08:34:58.825Z,0.70
2023-01-01T08:35:58.830Z,0.40
2023-01-01T08:36:58.817Z,0.80
2023-01-01T08:37:58.796Z,0.90
2023-01-01T08:38:58.806Z,0.40
2023-01-01T08:39:58.777Z,0.40
2023-01-01T08:40:58.757Z,1.10
2023-01-01T08:41:58.782Z,0.50
2023-01-01T08:43:06.339Z,0.50
2023-01-01T08:43:58.705Z,0.40
2023-01-01T08:44:58.756Z,0.30
2023-01-01T08:45:58.789Z,0.90
2023-01-01T08:46:58.686Z,0.30
2023-01-01T08:47:58.700Z,0.70
2023-01-01T08:48:59.671Z,0.50
2023-01-01T08:49:58.669Z,0.70
2023-01-01T08:50:59.688Z,0.60
2023-01-01T08:51:58.635Z,0.60
2023-01-01T08:52:58.639Z,0.60
2023-01-01T08:53:58.632Z,0.60
2023-01-01T08:54:58.637Z,0.50
2023-01-01T08:55:58.595Z,0.50
2023-01-01T08:56:58.578Z,0.30
2023-01-01T08:57:58.558Z,0.90
2023-01-01T08:59:03.927Z,0.30
2023-01-01T08:59:59.546Z,0.80
2023-01-01T09:00:59.567Z,1.00
2023-01-01T09:01:58.672Z,0.40
2023-01-01T09:02:58.618Z,0.60
2023-01-01T09:03:58.508Z,0.80
2023-01-01T09:04:59.513Z,0.80
2023-01-01T09:05:58.471Z,0.50
2023-01-01T09:06:58.455Z,0.90
2023-01-01T09:07:59.461Z,0.90
2023-01-01T09:08:58.472Z,0.40
2023-01-01T09:09:58.435Z,0.90
2023-01-01T09:10:58.428Z,0.80
2023-01-01T09:11:59.418Z,0.60
2023-01-01T09:12:58.404Z,0.60
2023-01-01T09:13:58.405Z,0.40
2023-01-01T09:14:59.389Z,0.80
2023-01-01T09:15:58.408Z,1.00
2023-01-01T09:16:59.360Z,1.40
2023-01-01T09:17:58.360Z,0.50
2023-01-01T09:18:58.364Z,1.30
2023-01-01T09:19:58.327Z,0.80
2023-01-01T09:20:58.306Z,0.90
2023-01-01T09:21:58.314Z,0.70
2023-01-01T09:23:05.513Z,0.70
2023-01-01T09:23:59.302Z,0.70
2023-01-01T09:24:58.277Z,0.50
2023-01-01T09:25:58.257Z,0.70
2023-01-01T09:26:59.248Z,1.30
2023-01-01T09:27:58.241Z,0.40
2023-01-01T09:28:58.263Z,0.30
2023-01-01T09:29:59.218Z,1.00
2023-01-01T09:30:58.198Z,1.40
2023-01-01T09:31:58.262Z,0.70
2023-01-01T09:32:58.190Z,0.70
2023-01-01T09:33:58.192Z,0.70
2023-01-01T09:34:58.175Z,0.70
2023-01-01T09:35:58.137Z,0.40
2023-01-01T09:36:58.156Z,0.90
2023-01-01T09:37:58.124Z,0.90
2023-01-01T09:38:58.123Z,0.70
2023-01-01T09:39:59.091Z,0.30
2023-01-01T09:40:58.118Z,0.90
2023-01-01T09:41:59.091Z,0.40
2023-01-01T09:42:58.068Z,1.20
2023-01-01T09:43:59.070Z,0.30
2023-01-01T09:44:58.095Z,0.30
2023-01-01T09:45:59.088Z,0.50
2023-01-01T09:46:59.018Z,1.70
2023-01-01T09:47:58.072Z,0.50
2023-01-01T09:48:58.028Z,0.80
2023-01-01T09:49:57.997Z,0.80
2023-01-01T09:50:57.983Z,0.40
2023-01-01T09:51:58.507Z,1.00
2023-01-01T09:52:57.951Z,0.40
2023-01-01T09:53:57.974Z,0.50
2023-01-01T09:54:57.967Z,1.00
2023-01-01T09:55:57.941Z,1.30
2023-01-01T09:56:57.914Z,0.70
2023-01-01T09:57:57.936Z,0.50
2023-01-01T09:58:57.885Z,0.80
2023-01-01T09:59:58.921Z,0.70
2023-01-01T10:00:57.901Z,0.40
2023-01-01T10:01:57.983Z,0.70
2023-01-01T10:02:57.857Z,1.10
2023-01-01T10:03:57.897Z,0.60
2023-01-01T10:04:57.840Z,0.60
2023-01-01T10:05:57.818Z,0.70
2023-01-01T10:06:57.825Z,0.40
2023-01-01T10:07:57.829Z,1.20
2023-01-01T10:08:57.808Z,0.60
2023-01-01T10:09:57.764Z,0.40
2023-01-01T10:10:57.768Z,0.40
2023-01-01T10:11:57.756Z,0.70
2023-01-01T10:12:57.749Z,0.80
2023-01-01T10:13:57.772Z,0.70
2023-01-01T10:15:00.861Z,0.50
2023-01-01T10:15:57.702Z,0.50
2023-01-01T10:16:57.728Z,0.60
2023-01-01T10:17:57.679Z,0.70
2023-01-01T10:18:57.704Z,0.40
2023-01-01T10:19:57.685Z,0.50
2023-01-01T10:20:57.691Z,0.40
2023-01-01T10:21:57.674Z,0.70
2023-01-01T10:22:57.643Z,0.60
2023-01-01T10:23:58.638Z,0.90
2023-01-01T10:24:57.641Z,0.80
2023-01-01T10:25:57.594Z,0.90
2023-01-01T10:26:57.615Z,0.50
2023-01-01T10:27:59.647Z,0.50
2023-01-01T10:28:57.580Z,0.50
2023-01-01T10:30:03.516Z,0.50
2023-01-01T10:30:58.565Z,1.00
2023-01-01T10:31:57.564Z,1.10
2023-01-01T10:32:57.550Z,0.30
2023-01-01T10:33:58.525Z,0.30
2023-01-01T10:34:57.491Z,0.50
2023-01-01T10:35:57.524Z,0.70
2023-01-01T10:36:57.514Z,0.30
2023-01-01T10:37:57.473Z,0.70
2023-01-01T10:38:58.450Z,0.70
2023-01-01T10:39:57.451Z,0.60
2023-01-01T10:40:57.455Z,0.50
2023-01-01T10:41:58.429Z,0.50
2023-01-01T10:42:58.426Z,0.70
2023-01-01T10:43:57.474Z,0.60
2023-01-01T10:44:57.424Z,1.50
2023-01-01T10:45:57.435Z,0.80
2023-01-01T10:46:57.379Z,0.80
2023-01-01T10:47:58.374Z,0.50
2023-01-01T10:48:57.394Z,0.70
2023-01-01T10:49:57.351Z,0.40
2023-01-01T10:50:57.319Z,0.40
2023-01-01T10:51:57.319Z,0.40
2023-01-01T10:52:58.313Z,0.70
2023-01-01T10:53:57.317Z,0.60
2023-01-01T10:54:57.293Z,0.70
2023-01-01T10:55:57.328Z,1.20
2023-01-01T10:56:57.280Z,0.50
2023-01-01T10:57:57.249Z,0.40
2023-01-01T10:58:57.246Z,0.40
2023-01-01T10:59:57.257Z,0.40
2023-01-01T11:00:57.259Z,0.40
2023-01-01T11:01:57.411Z,0.40
2023-01-01T11:02:57.220Z,0.40
2023-01-01T11:03:57.182Z,0.50
2023-01-01T11:04:57.194Z,0.50
2023-01-01T11:05:57.168Z,0.60
2023-01-01T11:06:58.175Z,0.50
2023-01-01T11:07:57.147Z,0.80
2023-01-01T11:08:57.202Z,0.80
2023-01-01T11:10:03.237Z,0.60
2023-01-01T11:10:58.108Z,0.40
2023-01-01T11:12:00.634Z,1.00
2023-01-01T11:13:06.311Z,0.40
2023-01-01T11:13:58.099Z,0.90
2023-01-01T11:14:57.093Z,0.90
2023-01-01T11:15:57.117Z,0.70
2023-01-01T11:16:58.074Z,0.90
2023-01-01T11:17:57.029Z,0.40
2023-01-01T11:18:57.080Z,0.30
2023-01-01T11:20:01.769Z,0.50
2023-01-01T11:20:58.067Z,0.80
2023-01-01T11:21:57.007Z,0.50
2023-01-01T11:22:56.987Z,0.40
2023-01-01T11:23:57.022Z,0.50
2023-01-01T11:24:57.000Z,0.50
2023-01-01T11:25:56.987Z,0.60
2023-01-01T11:26:56.961Z,0.30
2023-01-01T11:27:56.948Z,0.80
2023-01-01T11:28:56.925Z,0.20
2023-01-01T11:29:57.903Z,1.00
2023-01-01T11:30:57.961Z,0.50
2023-01-01T11:31:56.903Z,0.90
2023-01-01T11:32:57.864Z,0.60
2023-01-01T11:33:57.880Z,0.40
2023-01-01T11:34:57.857Z,0.50
2023-01-01T11:35:56.875Z,0.60
2023-01-01T11:36:56.835Z,0.40
2023-01-01T11:37:56.845Z,0.70
2023-01-01T11:38:56.845Z,1.10
2023-01-01T11:39:56.807Z,0.80
2023-01-01T11:40:57.807Z,0.50
2023-01-01T11:41:56.797Z,0.60
2023-01-01T11:42:58.133Z,0.80
2023-01-01T11:43:56.808Z,0.80
2023-01-01T11:44:56.782Z,0.60
2023-01-01T11:45:56.764Z,0.40
2023-01-01T11:46:57.762Z,0.90
2023-01-01T11:47:57.726Z,0.60
2023-01-01T11:48:56.714Z,0.30
2023-01-01T11:49:56.720Z,0.20
2023-01-01T11:50:57.695Z,0.70
2023-01-01T11:51:56.661Z,0.30
2023-01-01T11:52:57.664Z,0.70
2023-01-01T11:53:56.666Z,0.30
2023-01-01T11:54:56.665Z,0.50
2023-01-01T11:55:56.658Z,0.90
2023-01-01T11:56:56.691Z,0.70
2023-01-01T11:57:56.609Z,1.10
2023-01-01T11:58:56.601Z,1.00
2023-01-01T11:59:56.584Z,0.60
2023-01-01T12:00:56.575Z,0.60
2023-01-01T12:01:57.564Z,1.00
2023-01-01T12:02:56.665Z,0.70
2023-01-01T12:03:57.553Z,0.80
2023-01-01T12:04:57.532Z,0.50
2023-01-01T12:05:56.527Z,0.40
2023-01-01T12:06:56.527Z,1.30
2023-01-01T12:07:56.526Z,0.70
2023-01-01T12:08:56.491Z,0.60
2023-01-01T12:09:56.489Z,0.70
2023-01-01T12:10:56.473Z,0.70
2023-01-01T12:11:56.485Z,0.60
2023-01-01T12:12:57.457Z,0.70
2023-01-01T12:13:56.463Z,0.30
2023-01-01T12:14:56.477Z,0.50
2023-01-01T12:15:56.537Z,0.80
2023-01-01T12:16:56.406Z,0.40
2023-01-01T12:17:56.412Z,0.70
2023-01-01T12:18:56.393Z,0.60
2023-01-01T12:19:56.367Z,0.50
2023-01-01T12:20:56.351Z,0.80
2023-01-01T12:21:56.346Z,0.80
2023-01-01T12:22:56.329Z,0.50
2023-01-01T12:23:57.354Z,0.80
2023-01-01T12:24:56.300Z,0.30
2023-01-01T12:25:56.335Z,0.50
2023-01-01T12:26:56.322Z,0.60
2023-01-01T12:27:56.299Z,0.90
2023-01-01T12:28:57.270Z,0.70
2023-01-01T12:29:56.371Z,0.50
2023-01-01T12:30:56.327Z,0.80
2023-01-01T12:31:57.256Z,0.80
2023-01-01T12:32:56.232Z,1.00
2023-01-01T12:33:57.208Z,0.70
2023-01-01T12:34:56.204Z,0.70
2023-01-01T12:35:57.242Z,0.50
2023-01-01T12:36:56.203Z,0.70
2023-01-01T12:37:56.181Z,0.40
2023-01-01T12:38:56.159Z,0.60
2023-01-01T12:39:56.184Z,0.80
2023-01-01T12:40:56.144Z,0.40
2023-01-01T12:41:56.150Z,0.50
2023-01-01T12:42:56.104Z,0.50
2023-01-01T12:43:57.139Z,0.60
2023-01-01T12:44:56.130Z,0.70
2023-01-01T12:45:56.084Z,0.80
2023-01-01T12:46:56.083Z,1.00
2023-01-01T12:47:56.068Z,1.50
2023-01-01T12:48:57.052Z,1.10
2023-01-01T12:49:56.057Z,0.50
2023-01-01T12:51:01.484Z,1.40
2023-01-01T12:51:57.029Z,0.60
2023-01-01T12:52:56.016Z,1.20
2023-01-01T12:53:56.022Z,0.40
2023-01-01T12:54:55.993Z,0.90
2023-01-01T12:55:55.977Z,0.60
2023-01-01T12:56:55.961Z,0.60
2023-01-01T12:57:55.950Z,0.50
2023-01-01T12:58:55.969Z,0.50
2023-01-01T12:59:55.952Z,0.30
2023-01-01T13:00:55.971Z,0.70
2023-01-01T13:01:56.057Z,0.60
2023-01-01T13:02:55.981Z,0.50
2023-01-01T13:03:55.871Z,0.40
2023-01-01T13:04:55.891Z,0.30
2023-01-01T13:05:56.860Z,0.50
2023-01-01T13:06:55.906Z,0.40
2023-01-01T13:07:55.889Z,0.70
2023-01-01T13:08:55.852Z,0.30
2023-01-01T13:09:55.819Z,0.50
2023-01-01T13:10:55.826Z,0.60
2023-01-01T13:11:55.823Z,0.30
2023-01-01T13:12:55.834Z,0.40
2023-01-01T13:13:55.785Z,0.30
2023-01-01T13:14:55.776Z,1.00
2023-01-01T13:15:55.864Z,0.80
2023-01-01T13:16:55.774Z,0.50
2023-01-01T13:17:55.773Z,0.50
2023-01-01T13:19:02.235Z,0.60